Lawrence, Michigan
Current Conditions -  °F | °C
As of 2:15 PM on Friday 24 Oct 2014 (Local Time) from KLWA Reporting Station
Scattered Clouds Scattered Clouds  
Wind Chill: 60°   Ceiling: Unl
Heat Index: 60°   Visibility: 10mi
Dew Point: 51°   Wind: 9mph
Humidity: 74%   Direction: 280°W
Pressure: 30.02"   Gusts: NA
Location:  42.22°N, 86.05°W
Report Text: KLWA 241815Z AUTO 28008KT 250V310 10SM SCT015 15/11 A3002 RMK AO2 T01540107
Loading
Personal Weather Stations






























Interactive Weather Map
Tropical Storm Tracking
New forecast layout! Learn more

10-Day Weather Forecast

Advertisements
Track Severe Weather on mobile